createdAt,value
2022-07-26T00:01:59.425Z,49.40
2022-07-26T00:04:27.816Z,49.40
2022-07-26T00:06:56.082Z,49.40
2022-07-26T00:09:25.216Z,49.50
2022-07-26T00:11:53.519Z,49.50
2022-07-26T00:14:21.397Z,50.10
2022-07-26T00:16:49.202Z,49.60
2022-07-26T00:19:17.000Z,49.50
2022-07-26T00:21:45.204Z,50.20
2022-07-26T00:24:13.077Z,49.60
2022-07-26T00:26:42.297Z,49.60
2022-07-26T00:29:10.429Z,49.90
2022-07-26T00:31:38.730Z,50.00
2022-07-26T00:34:06.583Z,50.00
2022-07-26T00:36:34.458Z,50.00
2022-07-26T00:39:04.058Z,50.10
2022-07-26T00:41:31.809Z,50.10
2022-07-26T00:44:01.608Z,50.00
2022-07-26T00:46:29.484Z,50.20
2022-07-26T00:48:57.808Z,50.10
2022-07-26T00:51:25.673Z,50.10
2022-07-26T00:53:53.620Z,50.30
2022-07-26T00:56:22.699Z,50.30
2022-07-26T00:58:50.467Z,50.30
2022-07-26T01:01:19.698Z,50.30
2022-07-26T01:03:51.527Z,50.40
2022-07-26T01:06:21.785Z,50.40
2022-07-26T01:08:51.847Z,50.40
2022-07-26T01:11:19.636Z,50.40
2022-07-26T01:13:48.473Z,50.70
2022-07-26T01:16:16.608Z,50.80
2022-07-26T01:18:45.833Z,50.70
2022-07-26T01:21:14.346Z,50.60
2022-07-26T01:23:44.560Z,50.70
2022-07-26T01:26:12.629Z,50.70
2022-07-26T01:28:42.522Z,50.90
2022-07-26T01:31:10.418Z,50.90
2022-07-26T01:33:38.457Z,51.50
2022-07-26T01:36:06.867Z,51.20
2022-07-26T01:38:34.699Z,51.40
2022-07-26T01:41:03.861Z,51.50
2022-07-26T01:43:31.716Z,51.60
2022-07-26T01:45:59.587Z,51.80
2022-07-26T01:48:27.516Z,52.10
2022-07-26T01:50:55.441Z,52.40
2022-07-26T01:53:23.222Z,52.40
2022-07-26T01:55:51.014Z,52.30
2022-07-26T01:58:20.138Z,52.40
2022-07-26T02:00:47.909Z,52.40
2022-07-26T02:03:16.284Z,52.50
2022-07-26T02:05:44.194Z,52.60
2022-07-26T02:08:12.766Z,52.60
2022-07-26T02:10:58.676Z,53.00
2022-07-26T02:13:28.121Z,53.10
2022-07-26T02:15:58.674Z,53.20
2022-07-26T02:18:27.445Z,53.30
2022-07-26T02:20:55.333Z,53.60
2022-07-26T02:23:23.804Z,53.80
2022-07-26T02:25:51.634Z,53.90
2022-07-26T02:28:19.657Z,54.50
2022-07-26T02:30:49.800Z,54.00
2022-07-26T02:33:19.236Z,54.10
2022-07-26T02:35:47.781Z,54.20
2022-07-26T02:38:17.289Z,54.50
2022-07-26T02:40:45.434Z,54.60
2022-07-26T02:43:13.452Z,54.90
2022-07-26T02:45:41.300Z,55.10
2022-07-26T02:48:10.430Z,55.10
2022-07-26T02:50:38.864Z,55.30
2022-07-26T02:53:07.340Z,55.50
2022-07-26T02:55:35.122Z,55.60
2022-07-26T02:58:02.890Z,55.70
2022-07-26T03:00:31.154Z,55.80
2022-07-26T03:03:00.715Z,56.00
2022-07-26T03:05:30.080Z,56.20
2022-07-26T03:07:57.860Z,56.30
2022-07-26T03:10:25.642Z,56.50
2022-07-26T03:12:53.381Z,56.60
2022-07-26T03:15:21.286Z,56.60
2022-07-26T03:17:49.942Z,56.60
2022-07-26T03:20:18.254Z,56.80
2022-07-26T03:22:47.420Z,56.80
2022-07-26T03:25:15.792Z,56.80
2022-07-26T03:27:43.561Z,56.70
2022-07-26T03:30:12.795Z,56.70
2022-07-26T03:32:40.788Z,56.70
2022-07-26T03:35:09.787Z,56.70
2022-07-26T03:37:46.077Z,56.60
2022-07-26T03:40:16.546Z,57.60
2022-07-26T03:42:44.493Z,58.70
2022-07-26T03:45:13.882Z,59.30
2022-07-26T03:47:41.697Z,59.70
2022-07-26T03:50:10.846Z,60.40
2022-07-26T03:52:38.665Z,60.80
2022-07-26T03:55:21.409Z,61.40
2022-07-26T03:57:50.552Z,61.90
2022-07-26T04:00:18.695Z,62.20
2022-07-26T04:02:46.631Z,62.40
2022-07-26T04:05:14.508Z,62.40
2022-07-26T04:07:43.782Z,62.70
2022-07-26T04:10:21.157Z,62.40
2022-07-26T04:12:50.381Z,62.80
2022-07-26T04:15:19.097Z,63.00
2022-07-26T04:17:48.170Z,63.00
2022-07-26T04:20:16.629Z,64.10
2022-07-26T04:22:44.867Z,62.50
2022-07-26T04:25:12.780Z,62.70
2022-07-26T04:27:40.673Z,63.20
2022-07-26T04:30:15.206Z,63.50
2022-07-26T04:32:44.052Z,62.90
2022-07-26T04:35:13.753Z,62.50
2022-07-26T04:37:42.677Z,62.10
2022-07-26T04:40:11.895Z,61.80
2022-07-26T04:42:40.939Z,61.30
2022-07-26T04:45:12.619Z,60.90
2022-07-26T04:47:42.354Z,60.50
2022-07-26T04:50:11.077Z,60.40
2022-07-26T04:52:38.878Z,60.30
2022-07-26T04:55:07.680Z,60.40
2022-07-26T04:57:35.592Z,60.20
2022-07-26T05:00:23.304Z,60.10
2022-07-26T05:02:55.920Z,60.70
2022-07-26T05:05:25.394Z,61.40
2022-07-26T05:07:55.320Z,61.90
2022-07-26T05:10:28.645Z,61.90
2022-07-26T05:12:56.416Z,61.50
2022-07-26T05:15:24.261Z,61.10
2022-07-26T05:17:56.897Z,60.30
2022-07-26T05:20:25.318Z,59.90
2022-07-26T05:22:53.301Z,59.40
2022-07-26T05:25:21.096Z,59.30
2022-07-26T05:27:48.930Z,58.10
2022-07-26T05:30:16.930Z,57.10
2022-07-26T05:32:44.942Z,56.50
2022-07-26T05:35:14.227Z,56.40
2022-07-26T05:37:43.190Z,56.40
2022-07-26T05:40:12.046Z,56.70
2022-07-26T05:42:39.800Z,56.50
2022-07-26T05:45:08.961Z,56.40
2022-07-26T05:47:36.775Z,56.40
2022-07-26T05:50:05.448Z,56.70
2022-07-26T05:52:34.733Z,55.60
2022-07-26T05:55:02.697Z,55.60
2022-07-26T05:57:30.450Z,55.30
2022-07-26T05:59:58.271Z,55.00
2022-07-26T06:02:26.216Z,55.20
2022-07-26T06:04:54.205Z,55.00
2022-07-26T06:07:22.008Z,54.60
2022-07-26T06:09:51.166Z,54.60
2022-07-26T06:12:18.958Z,53.90
2022-07-26T06:14:46.804Z,53.70
2022-07-26T06:17:14.608Z,53.50
2022-07-26T06:19:47.423Z,53.20
2022-07-26T06:22:15.656Z,53.20
2022-07-26T06:24:43.484Z,53.50
2022-07-26T06:27:12.811Z,53.40
2022-07-26T06:29:41.256Z,53.40
2022-07-26T06:32:09.100Z,53.40
2022-07-26T06:34:36.977Z,53.70
2022-07-26T06:37:04.784Z,53.70
2022-07-26T06:39:32.552Z,53.00
2022-07-26T06:42:00.350Z,53.10
2022-07-26T06:44:29.553Z,53.00
2022-07-26T06:46:57.460Z,52.70
2022-07-26T06:49:25.334Z,52.50
2022-07-26T06:51:53.153Z,52.80
2022-07-26T06:54:20.970Z,52.80
2022-07-26T06:56:48.764Z,51.90
2022-07-26T06:59:16.550Z,50.70
2022-07-26T07:01:58.553Z,47.80
2022-07-26T07:04:28.724Z,45.80
2022-07-26T07:06:57.657Z,44.10
2022-07-26T07:09:25.762Z,42.10
2022-07-26T07:12:00.251Z,41.60
2022-07-26T07:14:33.661Z,41.00
2022-07-26T07:17:02.951Z,40.10
2022-07-26T07:19:40.968Z,39.70
2022-07-26T07:22:11.640Z,39.30
2022-07-26T07:24:39.854Z,38.70
2022-07-26T07:27:07.719Z,37.90
2022-07-26T07:29:35.657Z,36.20
2022-07-26T07:32:05.485Z,35.30
2022-07-26T07:34:33.631Z,35.20
2022-07-26T07:37:01.433Z,35.00
2022-07-26T07:39:34.947Z,33.90
2022-07-26T07:42:06.708Z,31.90
2022-07-26T07:44:34.597Z,31.90
2022-07-26T07:47:04.706Z,33.00
2022-07-26T07:49:32.687Z,34.20
2022-07-26T07:52:00.521Z,34.90
2022-07-26T07:54:28.361Z,34.00
2022-07-26T07:56:56.369Z,34.20
2022-07-26T07:59:24.376Z,33.30
2022-07-26T08:01:52.364Z,32.90
2022-07-26T08:04:21.725Z,31.40
2022-07-26T08:06:51.081Z,31.70
2022-07-26T08:09:19.901Z,31.80
2022-07-26T08:11:50.696Z,30.60
2022-07-26T08:14:19.166Z,29.30
2022-07-26T08:16:47.379Z,29.90
2022-07-26T08:19:16.032Z,30.70
2022-07-26T08:21:46.903Z,31.00
2022-07-26T08:24:15.166Z,32.00
2022-07-26T08:26:42.960Z,33.40
2022-07-26T08:29:11.025Z,35.30
2022-07-26T08:31:39.232Z,34.40
2022-07-26T08:34:07.121Z,34.10
2022-07-26T08:36:34.895Z,33.40
2022-07-26T08:39:05.172Z,32.70
2022-07-26T08:41:33.129Z,32.60
2022-07-26T08:44:07.888Z,32.60
2022-07-26T08:46:37.528Z,34.10
2022-07-26T08:49:10.208Z,34.80
2022-07-26T08:51:40.761Z,34.60
2022-07-26T08:54:11.281Z,33.50
2022-07-26T08:56:43.032Z,31.90
2022-07-26T08:59:20.790Z,30.50
2022-07-26T09:01:56.970Z,30.40
2022-07-26T09:04:36.310Z,31.00
2022-07-26T09:07:08.488Z,33.50
2022-07-26T09:09:40.027Z,34.20
2022-07-26T09:12:19.174Z,34.50
2022-07-26T09:14:47.774Z,35.40
2022-07-26T09:17:17.122Z,36.80
2022-07-26T09:19:45.119Z,38.00
2022-07-26T09:22:14.660Z,39.10
2022-07-26T09:24:45.120Z,38.60
2022-07-26T09:27:14.608Z,37.20
2022-07-26T09:29:47.210Z,36.80
2022-07-26T09:32:18.300Z,36.50
2022-07-26T09:34:53.163Z,36.70
2022-07-26T09:37:35.084Z,36.30
2022-07-26T09:40:07.337Z,37.50
2022-07-26T09:42:35.507Z,39.50
2022-07-26T09:45:04.207Z,40.40
2022-07-26T09:47:38.774Z,41.20
2022-07-26T09:50:15.170Z,42.20
2022-07-26T09:52:59.276Z,41.50
2022-07-26T09:55:36.476Z,41.20
2022-07-26T09:58:11.137Z,41.10
2022-07-26T10:00:40.369Z,41.70
2022-07-26T10:03:08.358Z,40.90
2022-07-26T10:05:36.787Z,41.00
2022-07-26T10:08:05.662Z,41.60
2022-07-26T10:10:37.962Z,42.10
2022-07-26T10:13:08.173Z,41.70
2022-07-26T10:15:42.971Z,41.10
2022-07-26T10:18:16.663Z,39.40
2022-07-26T10:20:51.442Z,37.30
2022-07-26T10:23:45.341Z,37.10
2022-07-26T10:26:40.253Z,36.30
2022-07-26T10:29:26.121Z,36.70
2022-07-26T10:32:14.434Z,38.80
2022-07-26T10:34:43.020Z,40.50
2022-07-26T10:37:12.451Z,41.30
2022-07-26T10:39:40.533Z,41.90
2022-07-26T10:42:11.465Z,42.50
2022-07-26T10:44:41.841Z,43.10
2022-07-26T10:47:16.622Z,43.00
2022-07-26T10:49:56.408Z,43.20
2022-07-26T10:52:27.141Z,43.50
2022-07-26T10:55:17.197Z,42.90
2022-07-26T10:57:48.907Z,40.30
2022-07-26T11:00:27.460Z,38.90
2022-07-26T11:02:57.921Z,37.60
2022-07-26T11:05:31.078Z,35.80
2022-07-26T11:08:10.300Z,34.60
2022-07-26T11:10:40.290Z,32.00
2022-07-26T11:13:15.563Z,32.70
2022-07-26T11:15:44.473Z,33.20
2022-07-26T11:18:18.008Z,34.00
2022-07-26T11:20:47.947Z,34.60
2022-07-26T11:23:31.046Z,35.20
2022-07-26T11:26:10.335Z,35.30
2022-07-26T11:28:55.244Z,34.60
2022-07-26T11:31:49.347Z,33.40
2022-07-26T11:34:19.142Z,32.20
2022-07-26T11:36:47.772Z,30.30
2022-07-26T11:39:17.077Z,30.00
2022-07-26T11:41:44.960Z,31.30
2022-07-26T11:44:19.812Z,32.40
2022-07-26T11:46:48.589Z,32.60
2022-07-26T11:49:18.396Z,32.50
2022-07-26T11:51:51.360Z,33.60
2022-07-26T11:54:19.414Z,34.40
2022-07-26T11:56:55.963Z,34.50
2022-07-26T11:59:26.464Z,34.60
2022-07-26T12:01:55.101Z,34.60
2022-07-26T12:04:25.129Z,35.00
2022-07-26T12:06:54.129Z,35.10
2022-07-26T12:09:33.389Z,35.50
2022-07-26T12:12:02.155Z,35.20
2022-07-26T12:14:33.422Z,34.50
2022-07-26T12:17:12.768Z,34.30
2022-07-26T12:19:40.625Z,32.40
2022-07-26T12:22:13.229Z,31.50
2022-07-26T12:24:44.778Z,30.50
2022-07-26T12:27:15.593Z,30.70
2022-07-26T12:29:46.085Z,32.50
2022-07-26T12:32:15.957Z,33.70
2022-07-26T12:34:57.369Z,34.50
2022-07-26T12:37:34.914Z,35.00
2022-07-26T12:40:10.633Z,35.90
2022-07-26T12:42:40.500Z,36.20
2022-07-26T12:45:12.080Z,36.90
2022-07-26T12:47:42.002Z,37.20
2022-07-26T12:50:11.909Z,37.40
2022-07-26T12:52:40.437Z,38.40
2022-07-26T12:55:11.419Z,38.80
2022-07-26T12:57:39.264Z,39.20
2022-07-26T13:00:17.637Z,39.70
2022-07-26T13:02:46.208Z,38.80
2022-07-26T13:05:14.574Z,37.70
2022-07-26T13:07:43.177Z,37.00
2022-07-26T13:13:00.395Z,36.50
2022-07-26T13:15:35.911Z,35.50
2022-07-26T13:18:07.768Z,35.00
2022-07-26T13:20:36.857Z,34.90
2022-07-26T13:23:04.779Z,35.20
2022-07-26T13:25:39.638Z,35.20
2022-07-26T13:28:08.469Z,35.30
2022-07-26T13:30:42.755Z,36.40
2022-07-26T13:33:11.330Z,36.70
2022-07-26T13:35:41.151Z,37.20
2022-07-26T13:38:09.591Z,36.80
2022-07-26T13:40:37.613Z,36.50
2022-07-26T13:43:06.060Z,36.60
2022-07-26T13:45:33.967Z,36.40
2022-07-26T13:48:03.180Z,36.10
2022-07-26T13:50:31.171Z,35.50
2022-07-26T13:52:59.082Z,36.00
2022-07-26T13:55:27.366Z,36.40
2022-07-26T13:57:56.582Z,36.30
2022-07-26T14:00:25.706Z,36.80
2022-07-26T14:02:53.664Z,36.90
2022-07-26T14:05:23.170Z,37.20
2022-07-26T14:07:51.457Z,38.00
2022-07-26T14:10:19.902Z,38.30
2022-07-26T14:12:48.321Z,37.90
2022-07-26T14:15:22.156Z,36.60
2022-07-26T14:17:51.084Z,35.30
2022-07-26T14:20:19.260Z,34.70
2022-07-26T14:22:53.091Z,34.40
2022-07-26T14:25:20.988Z,34.20
2022-07-26T14:27:48.855Z,34.40
2022-07-26T14:30:16.632Z,34.00
2022-07-26T14:32:44.428Z,34.20
2022-07-26T14:35:13.645Z,34.50
2022-07-26T14:37:44.931Z,34.10
2022-07-26T14:40:16.099Z,34.10
2022-07-26T14:42:44.344Z,34.00
2022-07-26T14:45:12.866Z,33.70
2022-07-26T14:47:40.883Z,34.10
2022-07-26T14:50:09.989Z,34.10
2022-07-26T14:52:39.128Z,34.10
2022-07-26T14:55:07.963Z,34.00
2022-07-26T14:57:39.459Z,34.50
2022-07-26T15:00:10.728Z,34.60
2022-07-26T15:02:40.118Z,35.20
2022-07-26T15:05:08.359Z,35.80
2022-07-26T15:07:36.200Z,36.20
2022-07-26T15:10:04.667Z,36.40
2022-07-26T15:12:32.519Z,36.80
2022-07-26T15:15:01.716Z,36.90
2022-07-26T15:17:29.473Z,37.20
2022-07-26T15:19:57.259Z,37.40
2022-07-26T15:22:25.020Z,37.50
2022-07-26T15:24:52.882Z,37.00
2022-07-26T15:27:20.671Z,36.70
2022-07-26T15:29:50.517Z,36.00
2022-07-26T15:32:21.295Z,35.50
2022-07-26T15:34:49.264Z,35.20
2022-07-26T15:37:17.454Z,35.10
2022-07-26T15:39:45.263Z,35.40
2022-07-26T15:42:15.198Z,35.30
2022-07-26T15:44:43.522Z,35.30
2022-07-26T15:47:12.074Z,35.20
2022-07-26T15:49:41.240Z,35.20
2022-07-26T15:52:11.828Z,34.60
2022-07-26T15:54:41.670Z,34.00
2022-07-26T15:57:09.764Z,34.40
2022-07-26T15:59:37.565Z,34.70
2022-07-26T16:02:07.829Z,36.00
2022-07-26T16:04:35.825Z,35.50
2022-07-26T16:07:05.004Z,35.20
2022-07-26T16:09:32.820Z,34.60
2022-07-26T16:12:05.640Z,34.30
2022-07-26T16:14:33.964Z,34.40
2022-07-26T16:17:01.841Z,35.20
2022-07-26T16:19:29.646Z,36.60
2022-07-26T16:21:57.540Z,36.80
2022-07-26T16:24:27.029Z,36.50
2022-07-26T16:26:54.808Z,36.80
2022-07-26T16:29:23.110Z,36.60
2022-07-26T16:31:50.994Z,37.20
2022-07-26T16:34:18.944Z,37.70
2022-07-26T16:36:46.700Z,37.50
2022-07-26T16:39:15.334Z,37.80
2022-07-26T16:41:44.881Z,37.90
2022-07-26T16:44:12.976Z,38.20
2022-07-26T16:46:40.903Z,38.50
2022-07-26T16:49:09.435Z,37.00
2022-07-26T16:51:37.528Z,36.80
2022-07-26T16:54:05.838Z,36.40
2022-07-26T16:56:33.669Z,37.10
2022-07-26T16:59:04.679Z,37.50
2022-07-26T17:01:34.373Z,37.80
2022-07-26T17:04:02.381Z,37.30
2022-07-26T17:06:30.288Z,37.80
2022-07-26T17:08:58.068Z,37.90
2022-07-26T17:11:25.937Z,37.20
2022-07-26T17:13:53.865Z,37.00
2022-07-26T17:16:24.763Z,37.20
2022-07-26T17:18:52.980Z,37.10
2022-07-26T17:21:20.885Z,37.10
2022-07-26T17:23:48.822Z,37.40
2022-07-26T17:26:17.384Z,37.40
2022-07-26T17:28:45.522Z,37.60
2022-07-26T17:31:13.588Z,38.20
2022-07-26T17:33:42.769Z,38.60
2022-07-26T17:36:26.140Z,38.90
2022-07-26T17:38:54.673Z,37.90
2022-07-26T17:41:23.315Z,37.80
2022-07-26T17:44:02.670Z,37.60
2022-07-26T17:46:32.331Z,38.30
2022-07-26T17:49:01.847Z,38.30
2022-07-26T17:51:29.800Z,38.80
2022-07-26T17:53:57.649Z,38.90
2022-07-26T17:56:25.593Z,39.30
2022-07-26T17:58:54.599Z,39.20
2022-07-26T18:01:22.600Z,39.30
2022-07-26T18:03:50.694Z,39.20
2022-07-26T18:06:19.931Z,39.40
2022-07-26T18:08:47.841Z,39.70
2022-07-26T18:11:15.726Z,39.90
2022-07-26T18:13:43.545Z,40.10
2022-07-26T18:16:12.774Z,40.40
2022-07-26T18:18:40.817Z,40.60
2022-07-26T18:21:08.817Z,40.70
2022-07-26T18:23:42.900Z,40.80
2022-07-26T18:26:24.152Z,40.70
2022-07-26T18:28:53.212Z,40.80
2022-07-26T18:31:21.213Z,41.10
2022-07-26T18:33:49.364Z,41.20
2022-07-26T18:36:17.611Z,41.10
2022-07-26T18:38:47.009Z,41.30
2022-07-26T18:41:16.321Z,41.40
2022-07-26T18:43:44.371Z,41.60
2022-07-26T18:46:12.434Z,41.60
2022-07-26T18:48:43.021Z,41.60
2022-07-26T18:51:11.824Z,41.80
2022-07-26T18:53:39.680Z,42.00
2022-07-26T18:56:10.812Z,42.20
2022-07-26T18:58:38.830Z,42.50
2022-07-26T19:01:06.782Z,42.60
2022-07-26T19:03:34.795Z,42.60
2022-07-26T19:06:02.893Z,42.60
2022-07-26T19:08:31.197Z,42.20
2022-07-26T19:10:59.250Z,42.10
2022-07-26T19:13:28.705Z,42.20
2022-07-26T19:15:56.697Z,42.20
2022-07-26T19:18:24.702Z,42.00
2022-07-26T19:20:52.928Z,42.70
2022-07-26T19:23:20.701Z,42.10
2022-07-26T19:25:48.709Z,42.00
2022-07-26T19:28:16.696Z,41.70
2022-07-26T19:30:46.023Z,41.90
2022-07-26T19:33:14.217Z,41.90
2022-07-26T19:35:42.027Z,41.90
2022-07-26T19:38:10.049Z,42.00
2022-07-26T19:40:38.021Z,42.10
2022-07-26T19:43:05.989Z,42.10
2022-07-26T19:45:33.788Z,42.30
2022-07-26T19:48:03.167Z,42.60
2022-07-26T19:50:31.352Z,43.10
2022-07-26T19:52:59.242Z,43.70
2022-07-26T19:55:27.184Z,44.60
2022-07-26T19:57:56.065Z,45.20
2022-07-26T20:00:23.885Z,45.90
2022-07-26T20:02:51.720Z,46.10
2022-07-26T20:05:22.484Z,46.10
2022-07-26T20:07:51.270Z,46.10
2022-07-26T20:10:19.531Z,45.80
2022-07-26T20:12:47.469Z,45.80
2022-07-26T20:15:15.391Z,45.70
2022-07-26T20:17:43.302Z,45.70
2022-07-26T20:20:12.256Z,45.70
2022-07-26T20:22:41.654Z,45.80
2022-07-26T20:25:10.233Z,46.10
2022-07-26T20:27:38.133Z,46.30
2022-07-26T20:30:07.410Z,46.20
2022-07-26T20:32:35.190Z,46.10
2022-07-26T20:35:03.126Z,46.50
2022-07-26T20:37:31.012Z,46.70
2022-07-26T20:40:00.317Z,46.60
2022-07-26T20:42:28.309Z,46.90
2022-07-26T20:44:56.425Z,47.10
2022-07-26T20:47:24.252Z,47.50
2022-07-26T20:49:52.149Z,47.60
2022-07-26T20:52:20.127Z,47.70
2022-07-26T20:54:48.053Z,47.60
2022-07-26T20:57:17.269Z,47.40
2022-07-26T20:59:45.338Z,47.40
2022-07-26T21:02:13.266Z,47.20
2022-07-26T21:04:41.181Z,47.40
2022-07-26T21:07:09.249Z,47.70
2022-07-26T21:09:37.087Z,47.70
2022-07-26T21:12:05.664Z,47.70
2022-07-26T21:14:34.866Z,47.80
2022-07-26T21:17:05.548Z,47.70
2022-07-26T21:19:35.818Z,48.10
2022-07-26T21:22:03.746Z,47.90
2022-07-26T21:24:31.781Z,48.10
2022-07-26T21:26:59.675Z,48.20
2022-07-26T21:29:27.569Z,48.20
2022-07-26T21:31:56.921Z,48.30
2022-07-26T21:34:25.675Z,48.20
2022-07-26T21:36:54.035Z,48.40
2022-07-26T21:39:21.949Z,48.80
2022-07-26T21:41:50.536Z,48.70
2022-07-26T21:44:18.536Z,48.90
2022-07-26T21:46:49.014Z,49.00
2022-07-26T21:49:19.296Z,49.10
2022-07-26T21:51:47.369Z,49.10
2022-07-26T21:54:15.173Z,49.80
2022-07-26T21:56:44.117Z,49.50
2022-07-26T21:59:12.529Z,49.60
2022-07-26T22:01:40.796Z,49.70
2022-07-26T22:04:10.037Z,49.60
2022-07-26T22:06:39.519Z,49.70
2022-07-26T22:09:07.446Z,50.10
2022-07-26T22:11:35.468Z,50.20
2022-07-26T22:14:03.497Z,50.20
2022-07-26T22:16:31.753Z,50.50
2022-07-26T22:18:59.620Z,50.60
2022-07-26T22:21:30.458Z,51.00
2022-07-26T22:23:59.607Z,51.50
2022-07-26T22:26:31.002Z,52.30
2022-07-26T22:28:59.157Z,51.90
2022-07-26T22:31:27.349Z,52.80
2022-07-26T22:33:55.329Z,52.20
2022-07-26T22:36:23.380Z,52.30
2022-07-26T22:38:51.148Z,52.00
2022-07-26T22:41:20.604Z,51.90
2022-07-26T22:43:49.282Z,52.00
2022-07-26T22:46:27.540Z,52.40
2022-07-26T22:48:57.209Z,53.10
2022-07-26T22:51:25.125Z,53.50
2022-07-26T22:53:52.909Z,53.70
2022-07-26T22:56:23.375Z,54.10
2022-07-26T22:58:51.202Z,54.50
2022-07-26T23:01:19.105Z,55.20
2022-07-26T23:03:48.695Z,55.60
2022-07-26T23:06:31.125Z,56.10
2022-07-26T23:08:59.980Z,56.60
2022-07-26T23:11:30.757Z,56.70
2022-07-26T23:13:59.630Z,57.00
2022-07-26T23:16:27.655Z,57.00
2022-07-26T23:18:56.730Z,56.90
2022-07-26T23:21:24.621Z,56.90
2022-07-26T23:23:52.544Z,57.00
2022-07-26T23:26:20.341Z,57.20
2022-07-26T23:36:16.944Z,57.70
2022-07-26T23:42:25.366Z,58.50
2022-07-26T23:44:53.238Z,58.90
2022-07-26T23:47:21.063Z,59.10
2022-07-26T23:49:49.090Z,59.50
2022-07-26T23:52:18.445Z,59.70
2022-07-26T23:54:46.283Z,60.00
2022-07-26T23:57:14.248Z,60.10
2022-07-26T23:59:42.160Z,60.50
